»·PEaware :: SKW3340 KLAX-KSBP

SKW3340 :: KLAX-KSBP

FLIGHT INFORMATION

Flight Status: Arrived
Operator:
SkyWest Airlines
More flights by this operator :: More flights under this callsign
Pilot: Paul K. (16555)
Aircraft: BOEING 737-200
(B732)
More flights by this aircraft type
Origin: KLAX Los Angeles Intl
United States
Destination: KSBP San Luis Co Regl
United States
More flights between these airports :: More routes between these airports
Route: VTU8 RZS MQO
File this flight plan on PilotEdge
Remarks:
Altitude:
(Current/Filed)
20,000ft
Speed:
(Current/Filed)
395kts
Departed: 11-May-18 02:38 PM
Arrived: 11-May-18 03:25 PM
Distance/Time
Traveled:
135nm/0:47
Distance/Time
To Go:
Arrived

Flight Plot

Page will automatically refresh every two minutes.

Flight plan parsing failed; only flown route is shown


Map Options




Map Legend


Flown Route
Filed Route
Departure Airport
Arrival Airport
Navaid (VOR, NDB)
Fix

Horizontal Profiles

Position Reports

Time Latitude Longitude Heading Altitude Ground
Speed
11-May-18 14:15 33.946925 -118.404838 114 114ft 0kts
11-May-18 14:16 33.946925 -118.404838 114 114ft 0kts
11-May-18 14:17 33.946925 -118.404838 114 114ft 0kts
11-May-18 14:18 33.946925 -118.404838 114 114ft 0kts
11-May-18 14:19 33.946925 -118.404838 114 114ft 0kts
11-May-18 14:20 33.946925 -118.404838 114 114ft 0kts
11-May-18 14:21 33.946925 -118.404838 114 114ft 0kts
11-May-18 14:22 33.946999 -118.405037 114 114ft 2kts
11-May-18 14:23 33.947012 -118.405641 44 114ft 2kts
11-May-18 14:24 33.946734 -118.405749 353 114ft 0kts
11-May-18 14:25 33.946735 -118.405749 353 114ft 0kts
11-May-18 14:26 33.946735 -118.405749 353 114ft 0kts
11-May-18 14:27 33.946735 -118.405749 353 114ft 0kts
11-May-18 14:28 33.946735 -118.405749 353 114ft 0kts
11-May-18 14:29 33.946735 -118.405749 353 114ft 0kts
11-May-18 14:30 33.946735 -118.405749 353 114ft 0kts
11-May-18 14:31 33.946735 -118.405749 353 114ft 0kts
11-May-18 14:32 33.946735 -118.405749 353 114ft 0kts
11-May-18 14:33 33.946739 -118.405750 353 114ft 0kts
11-May-18 14:34 33.948794 -118.404768 85 114ft 19kts
11-May-18 14:35 33.949225 -118.400855 48 114ft 8kts
11-May-18 14:36 33.949315 -118.400782 24 114ft 0kts
11-May-18 14:37 33.949315 -118.400782 24 114ft 0kts
11-May-18 14:38 33.950092 -118.402970 264 114ft 45kts
11-May-18 14:39 33.945044 -118.454173 263 1413ft 205kts
11-May-18 14:40 33.936054 -118.532846 263 3621ft 260kts
11-May-18 14:41 33.924656 -118.619537 263 6811ft 265kts
11-May-18 14:42 33.911305 -118.705354 261 9631ft 265kts
11-May-18 14:43 33.910191 -118.796318 296 11176ft 304kts
11-May-18 14:44 33.968458 -118.872430 311 13324ft 315kts
11-May-18 14:45 34.030851 -118.948307 312 15159ft 324kts
11-May-18 14:46 34.095208 -119.026147 313 16764ft 333kts
11-May-18 14:47 34.149488 -119.113313 302 18179ft 339kts
11-May-18 14:48 34.200909 -119.206098 302 19437ft 345kts
11-May-18 14:49 34.254386 -119.303404 302 19947ft 359kts
11-May-18 14:50 34.310286 -119.405502 302 19947ft 371kts
11-May-18 14:51 34.367817 -119.510898 302 19950ft 380kts
11-May-18 14:52 34.425306 -119.616475 302 19941ft 362kts
11-May-18 14:53 34.477885 -119.713264 302 19947ft 335kts
11-May-18 14:54 34.531895 -119.800068 310 19844ft 314kts
11-May-18 14:55 34.593829 -119.882236 310 17215ft 334kts
11-May-18 14:56 34.655502 -119.963620 310 15277ft 324kts
11-May-18 14:57 34.716890 -120.041537 313 13370ft 316kts
11-May-18 14:58 34.779394 -120.113901 314 11513ft 308kts
11-May-18 14:59 34.837837 -120.181100 314 10084ft 280kts
11-May-18 15:00 34.893024 -120.244525 314 9006ft 259kts
11-May-18 15:01 34.942496 -120.301548 314 8260ft 240kts
11-May-18 15:02 34.989597 -120.355910 315 6605ft 226kts
11-May-18 15:03 35.033411 -120.406519 315 4989ft 198kts
11-May-18 15:04 35.057950 -120.447973 302 5025ft 193kts
11-May-18 15:05 35.087968 -120.502668 302 5008ft 190kts
11-May-18 15:06 35.116799 -120.553204 302 5002ft 190kts
11-May-18 15:07 35.146313 -120.603715 302 5004ft 187kts
11-May-18 15:08 35.175959 -120.654027 302 5001ft 186kts
11-May-18 15:09 35.206055 -120.704925 302 5013ft 184kts
11-May-18 15:10 35.236596 -120.756476 302 5014ft 188kts
11-May-18 15:11 35.267549 -120.808911 301 5008ft 192kts
11-May-18 15:12 35.298975 -120.862135 302 5011ft 196kts
11-May-18 15:13 35.331395 -120.917227 302 5016ft 202kts
11-May-18 15:14 35.364554 -120.973847 302 5013ft 207kts
11-May-18 15:15 35.399195 -121.031360 317 4975ft 213kts
11-May-18 15:16 35.443140 -121.004717 94 4634ft 223kts
11-May-18 15:17 35.412081 -120.943432 129 3970ft 208kts
11-May-18 15:18 35.383810 -120.895302 129 3933ft 146kts
11-May-18 15:19 35.361578 -120.856952 128 4088ft 138kts
11-May-18 15:20 35.336637 -120.812871 125 3281ft 185kts
11-May-18 15:21 35.310501 -120.767470 125 2551ft 144kts
11-May-18 15:22 35.288165 -120.731102 131 1946ft 133kts
11-May-18 15:23 35.267997 -120.694481 126 1172ft 126kts
11-May-18 15:24 35.251083 -120.664972 127 602ft 128kts
11-May-18 15:25 35.235367 -120.637263 106 191ft 24kts
11-May-18 15:26 35.235418 -120.636052 52 191ft 0kts
11-May-18 15:27 35.237438 -120.639040 304 191ft 20kts
11-May-18 15:28 35.238785 -120.641082 0 191ft 0kts
11-May-18 15:29 35.238785 -120.641082 0 191ft 0kts
11-May-18 15:30 35.238785 -120.641082 0 191ft 0kts

Navigation Log

Ident Type
Flight plan parsing failed, navigation log unavailable